sensor_id;sensor_type;location;lat;lon;timestamp;pressure;altitude;pressure_sealevel;temperature;humidity
37776;BME280;23614;33.774;130.514;2022-07-10T00:02:25;99991.84;;;32.73;42.69
37776;BME280;23614;33.774;130.514;2022-07-10T00:04:51;99993.10;;;32.95;42.02
37776;BME280;23614;33.774;130.514;2022-07-10T00:07:17;99998.79;;;33.05;41.64
37776;BME280;23614;33.774;130.514;2022-07-10T00:09:43;100000.06;;;32.60;42.72
37776;BME280;23614;33.774;130.514;2022-07-10T00:12:10;99998.04;;;32.66;42.52
37776;BME280;23614;33.774;130.514;2022-07-10T00:14:35;99995.24;;;32.62;42.73
37776;BME280;23614;33.774;130.514;2022-07-10T00:17:01;99997.43;;;32.45;42.21
37776;BME280;23614;33.774;130.514;2022-07-10T00:19:27;100001.78;;;32.70;42.36
37776;BME280;23614;33.774;130.514;2022-07-10T00:21:53;100004.81;;;32.30;43.19
37776;BME280;23614;33.774;130.514;2022-07-10T00:24:19;100001.59;;;32.56;43.10
37776;BME280;23614;33.774;130.514;2022-07-10T00:26:45;100004.44;;;32.40;43.52
37776;BME280;23614;33.774;130.514;2022-07-10T00:29:11;100000.61;;;32.12;43.71
37776;BME280;23614;33.774;130.514;2022-07-10T00:31:37;100002.99;;;32.07;43.67
37776;BME280;23614;33.774;130.514;2022-07-10T00:34:03;100008.67;;;32.03;43.67
37776;BME280;23614;33.774;130.514;2022-07-10T00:36:29;100013.71;;;31.75;44.91
37776;BME280;23614;33.774;130.514;2022-07-10T00:38:55;100010.63;;;31.96;44.74
37776;BME280;23614;33.774;130.514;2022-07-10T00:41:21;100010.19;;;32.35;44.46
37776;BME280;23614;33.774;130.514;2022-07-10T00:43:56;100008.96;;;32.44;44.62
37776;BME280;23614;33.774;130.514;2022-07-10T00:46:13;100010.56;;;32.44;43.21
37776;BME280;23614;33.774;130.514;2022-07-10T00:48:39;100012.88;;;32.95;42.24
37776;BME280;23614;33.774;130.514;2022-07-10T00:51:05;100012.93;;;32.56;42.15
37776;BME280;23614;33.774;130.514;2022-07-10T00:53:31;100012.25;;;33.14;41.52
37776;BME280;23614;33.774;130.514;2022-07-10T00:55:57;100012.78;;;32.73;42.06
37776;BME280;23614;33.774;130.514;2022-07-10T00:58:23;100011.73;;;32.89;43.08
37776;BME280;23614;33.774;130.514;2022-07-10T01:00:49;100008.45;;;32.90;41.15
37776;BME280;23614;33.774;130.514;2022-07-10T01:03:15;100013.62;;;33.24;40.21
37776;BME280;23614;33.774;130.514;2022-07-10T01:05:41;100011.94;;;33.14;39.97
37776;BME280;23614;33.774;130.514;2022-07-10T01:08:07;100010.65;;;33.17;40.23
37776;BME280;23614;33.774;130.514;2022-07-10T01:10:33;100009.16;;;32.44;40.16
37776;BME280;23614;33.774;130.514;2022-07-10T01:13:00;100006.98;;;32.92;39.21
37776;BME280;23614;33.774;130.514;2022-07-10T01:15:25;100007.72;;;32.77;39.16
37776;BME280;23614;33.774;130.514;2022-07-10T01:17:51;100013.66;;;33.29;39.23
37776;BME280;23614;33.774;130.514;2022-07-10T01:20:17;100008.61;;;33.41;38.17
37776;BME280;23614;33.774;130.514;2022-07-10T01:22:43;100007.67;;;33.46;38.72
37776;BME280;23614;33.774;130.514;2022-07-10T01:25:09;100013.05;;;33.47;38.02
37776;BME280;23614;33.774;130.514;2022-07-10T01:27:35;100016.63;;;33.39;37.90
37776;BME280;23614;33.774;130.514;2022-07-10T01:30:01;100013.04;;;33.62;38.03
37776;BME280;23614;33.774;130.514;2022-07-10T01:32:27;100011.73;;;33.40;38.49
37776;BME280;23614;33.774;130.514;2022-07-10T01:34:53;100011.67;;;33.62;38.26
37776;BME280;23614;33.774;130.514;2022-07-10T01:37:19;100010.01;;;33.28;39.13
37776;BME280;23614;33.774;130.514;2022-07-10T01:39:45;100013.79;;;33.84;38.46
37776;BME280;23614;33.774;130.514;2022-07-10T01:42:11;100015.09;;;33.59;38.89
37776;BME280;23614;33.774;130.514;2022-07-10T01:44:37;100014.03;;;33.98;38.05
37776;BME280;23614;33.774;130.514;2022-07-10T01:47:03;100019.63;;;33.73;36.67
37776;BME280;23614;33.774;130.514;2022-07-10T01:49:29;100017.26;;;33.59;36.53
37776;BME280;23614;33.774;130.514;2022-07-10T01:51:55;100018.26;;;33.73;37.20
37776;BME280;23614;33.774;130.514;2022-07-10T01:54:21;100014.90;;;33.99;36.23
37776;BME280;23614;33.774;130.514;2022-07-10T01:56:47;100019.99;;;34.21;36.10
37776;BME280;23614;33.774;130.514;2022-07-10T01:59:13;100022.21;;;34.60;35.66
37776;BME280;23614;33.774;130.514;2022-07-10T02:01:39;100019.57;;;34.54;35.50
37776;BME280;23614;33.774;130.514;2022-07-10T02:04:05;100020.19;;;33.55;36.75
37776;BME280;23614;33.774;130.514;2022-07-10T02:06:31;100022.40;;;34.58;35.85
37776;BME280;23614;33.774;130.514;2022-07-10T02:08:57;100023.57;;;34.49;35.97
37776;BME280;23614;33.774;130.514;2022-07-10T02:11:23;100023.43;;;34.09;36.86
37776;BME280;23614;33.774;130.514;2022-07-10T02:13:49;100024.93;;;33.89;37.17
37776;BME280;23614;33.774;130.514;2022-07-10T02:16:15;100030.05;;;33.85;37.57
37776;BME280;23614;33.774;130.514;2022-07-10T02:18:41;100034.11;;;34.46;36.78
37776;BME280;23614;33.774;130.514;2022-07-10T02:21:07;100031.06;;;34.43;37.02
37776;BME280;23614;33.774;130.514;2022-07-10T02:23:33;100030.11;;;34.53;36.58
37776;BME280;23614;33.774;130.514;2022-07-10T02:25:59;100028.20;;;34.20;36.45
37776;BME280;23614;33.774;130.514;2022-07-10T02:28:25;100027.04;;;34.58;36.16
37776;BME280;23614;33.774;130.514;2022-07-10T02:30:51;100029.84;;;34.63;35.81
37776;BME280;23614;33.774;130.514;2022-07-10T02:33:17;100031.12;;;34.58;35.75
37776;BME280;23614;33.774;130.514;2022-07-10T02:35:43;100028.96;;;34.42;35.22
37776;BME280;23614;33.774;130.514;2022-07-10T02:38:09;100031.67;;;34.26;36.41
37776;BME280;23614;33.774;130.514;2022-07-10T02:40:35;100031.49;;;34.76;36.03
37776;BME280;23614;33.774;130.514;2022-07-10T02:43:01;100034.54;;;34.47;35.66
37776;BME280;23614;33.774;130.514;2022-07-10T02:45:27;100045.22;;;33.90;37.66
37776;BME280;23614;33.774;130.514;2022-07-10T02:47:53;100048.04;;;33.87;37.49
37776;BME280;23614;33.774;130.514;2022-07-10T02:50:19;100051.32;;;33.93;38.22
37776;BME280;23614;33.774;130.514;2022-07-10T02:52:45;100042.18;;;33.97;38.00
37776;BME280;23614;33.774;130.514;2022-07-10T02:55:11;100042.73;;;34.54;37.01
37776;BME280;23614;33.774;130.514;2022-07-10T02:57:37;100045.35;;;34.23;37.65
37776;BME280;23614;33.774;130.514;2022-07-10T03:00:03;100049.45;;;34.06;37.51
37776;BME280;23614;33.774;130.514;2022-07-10T03:02:29;100045.06;;;33.93;38.18
37776;BME280;23614;33.774;130.514;2022-07-10T03:04:55;100046.00;;;33.20;38.71
37776;BME280;23614;33.774;130.514;2022-07-10T03:07:21;100046.69;;;33.57;38.84
37776;BME280;23614;33.774;130.514;2022-07-10T03:09:47;100048.54;;;34.34;37.31
37776;BME280;23614;33.774;130.514;2022-07-10T03:12:13;100046.82;;;34.38;36.87
37776;BME280;23614;33.774;130.514;2022-07-10T03:14:39;100051.08;;;34.58;36.13
37776;BME280;23614;33.774;130.514;2022-07-10T03:17:06;100051.44;;;34.24;36.53
37776;BME280;23614;33.774;130.514;2022-07-10T03:19:31;100046.81;;;34.68;35.91
37776;BME280;23614;33.774;130.514;2022-07-10T03:21:57;100051.26;;;34.55;35.77
37776;BME280;23614;33.774;130.514;2022-07-10T03:24:23;100051.50;;;34.51;36.18
37776;BME280;23614;33.774;130.514;2022-07-10T03:26:54;100052.21;;;34.93;35.44
37776;BME280;23614;33.774;130.514;2022-07-10T03:29:15;100051.93;;;34.50;36.16
37776;BME280;23614;33.774;130.514;2022-07-10T03:31:41;100047.37;;;34.56;35.80
37776;BME280;23614;33.774;130.514;2022-07-10T03:34:12;100043.27;;;34.60;35.71
37776;BME280;23614;33.774;130.514;2022-07-10T03:43:51;100049.36;;;34.79;34.88
37776;BME280;23614;33.774;130.514;2022-07-10T03:46:17;100050.12;;;34.61;35.55
37776;BME280;23614;33.774;130.514;2022-07-10T03:48:43;100051.63;;;34.75;35.47
37776;BME280;23614;33.774;130.514;2022-07-10T03:51:09;100049.99;;;34.41;36.42
37776;BME280;23614;33.774;130.514;2022-07-10T03:53:35;100053.67;;;33.82;37.06
37776;BME280;23614;33.774;130.514;2022-07-10T03:56:01;100053.14;;;33.73;37.71
37776;BME280;23614;33.774;130.514;2022-07-10T03:58:27;100046.09;;;33.79;37.30
37776;BME280;23614;33.774;130.514;2022-07-10T04:00:53;100048.91;;;33.91;37.31
37776;BME280;23614;33.774;130.514;2022-07-10T04:03:19;100052.62;;;33.40;37.72
37776;BME280;23614;33.774;130.514;2022-07-10T04:05:45;100046.71;;;34.06;37.28
37776;BME280;23614;33.774;130.514;2022-07-10T04:08:11;100045.53;;;34.02;37.36
37776;BME280;23614;33.774;130.514;2022-07-10T04:10:37;100050.73;;;33.67;37.68
37776;BME280;23614;33.774;130.514;2022-07-10T04:13:04;100047.89;;;33.95;38.02
37776;BME280;23614;33.774;130.514;2022-07-10T04:15:29;100045.62;;;33.95;37.95
37776;BME280;23614;33.774;130.514;2022-07-10T04:17:55;100048.67;;;34.25;37.13
37776;BME280;23614;33.774;130.514;2022-07-10T04:20:22;100054.14;;;34.72;37.12
37776;BME280;23614;33.774;130.514;2022-07-10T04:22:47;100057.27;;;34.40;36.31
37776;BME280;23614;33.774;130.514;2022-07-10T04:25:13;100053.59;;;34.13;37.52
37776;BME280;23614;33.774;130.514;2022-07-10T04:27:39;100055.58;;;34.05;38.12
37776;BME280;23614;33.774;130.514;2022-07-10T04:30:06;100058.66;;;33.83;38.13
37776;BME280;23614;33.774;130.514;2022-07-10T04:32:31;100063.37;;;33.37;38.48
37776;BME280;23614;33.774;130.514;2022-07-10T04:34:57;100064.61;;;34.05;37.30
37776;BME280;23614;33.774;130.514;2022-07-10T04:37:23;100064.03;;;33.96;37.06
37776;BME280;23614;33.774;130.514;2022-07-10T04:39:49;100064.26;;;33.95;37.16
37776;BME280;23614;33.774;130.514;2022-07-10T04:42:15;100066.34;;;33.72;37.30
37776;BME280;23614;33.774;130.514;2022-07-10T04:44:41;100062.73;;;34.05;36.79
37776;BME280;23614;33.774;130.514;2022-07-10T04:47:07;100066.41;;;33.24;36.64
37776;BME280;23614;33.774;130.514;2022-07-10T04:49:33;100069.20;;;33.53;36.23
37776;BME280;23614;33.774;130.514;2022-07-10T04:52:01;100069.42;;;32.87;37.97
37776;BME280;23614;33.774;130.514;2022-07-10T04:54:25;100065.85;;;33.55;37.37
37776;BME280;23614;33.774;130.514;2022-07-10T04:56:51;100070.89;;;32.97;38.57
37776;BME280;23614;33.774;130.514;2022-07-10T04:59:17;100070.89;;;33.38;38.80
37776;BME280;23614;33.774;130.514;2022-07-10T05:01:43;100072.29;;;33.32;38.98
37776;BME280;23614;33.774;130.514;2022-07-10T05:04:09;100070.35;;;33.90;37.27
37776;BME280;23614;33.774;130.514;2022-07-10T05:06:35;100068.82;;;33.55;37.83
37776;BME280;23614;33.774;130.514;2022-07-10T05:09:01;100065.53;;;33.52;38.17
37776;BME280;23614;33.774;130.514;2022-07-10T05:11:27;100061.85;;;33.21;38.79
37776;BME280;23614;33.774;130.514;2022-07-10T05:13:53;100065.54;;;33.19;38.82
37776;BME280;23614;33.774;130.514;2022-07-10T05:16:19;100071.86;;;32.90;39.76
37776;BME280;23614;33.774;130.514;2022-07-10T05:18:45;100072.32;;;32.98;39.40
37776;BME280;23614;33.774;130.514;2022-07-10T05:21:12;100071.68;;;33.27;38.66
37776;BME280;23614;33.774;130.514;2022-07-10T05:23:38;100072.82;;;33.44;38.76
37776;BME280;23614;33.774;130.514;2022-07-10T05:26:03;100074.57;;;32.43;39.81
37776;BME280;23614;33.774;130.514;2022-07-10T05:28:29;100078.78;;;33.57;38.04
37776;BME280;23614;33.774;130.514;2022-07-10T05:30:55;100077.63;;;33.77;37.57
37776;BME280;23614;33.774;130.514;2022-07-10T05:33:21;100078.06;;;33.90;37.96
37776;BME280;23614;33.774;130.514;2022-07-10T05:35:47;100084.17;;;33.50;38.43
37776;BME280;23614;33.774;130.514;2022-07-10T05:38:13;100083.49;;;33.74;38.23
37776;BME280;23614;33.774;130.514;2022-07-10T05:40:39;100085.45;;;33.36;39.32
37776;BME280;23614;33.774;130.514;2022-07-10T05:43:05;100082.91;;;33.61;38.60
37776;BME280;23614;33.774;130.514;2022-07-10T05:45:31;100081.03;;;33.21;39.16
37776;BME280;23614;33.774;130.514;2022-07-10T05:47:57;100083.19;;;33.59;38.70
37776;BME280;23614;33.774;130.514;2022-07-10T05:50:23;100084.01;;;33.46;38.89
37776;BME280;23614;33.774;130.514;2022-07-10T05:52:49;100087.64;;;33.66;38.42
37776;BME280;23614;33.774;130.514;2022-07-10T05:55:15;100087.42;;;33.22;39.22
37776;BME280;23614;33.774;130.514;2022-07-10T05:57:41;100085.32;;;33.01;39.80
37776;BME280;23614;33.774;130.514;2022-07-10T06:00:10;100080.38;;;33.25;38.78
37776;BME280;23614;33.774;130.514;2022-07-10T06:02:33;100077.72;;;33.17;39.42
37776;BME280;23614;33.774;130.514;2022-07-10T06:04:59;100080.95;;;32.74;39.95
37776;BME280;23614;33.774;130.514;2022-07-10T06:07:25;100077.48;;;32.77;40.17
37776;BME280;23614;33.774;130.514;2022-07-10T06:09:51;100069.70;;;32.52;40.07
37776;BME280;23614;33.774;130.514;2022-07-10T06:12:17;100067.25;;;32.73;39.83
37776;BME280;23614;33.774;130.514;2022-07-10T06:14:43;100065.91;;;33.12;39.19
37776;BME280;23614;33.774;130.514;2022-07-10T06:17:09;100066.76;;;33.10;39.33
37776;BME280;23614;33.774;130.514;2022-07-10T06:19:35;100071.57;;;33.30;39.24
37776;BME280;23614;33.774;130.514;2022-07-10T06:22:01;100072.08;;;32.04;41.09
37776;BME280;23614;33.774;130.514;2022-07-10T06:24:27;100078.90;;;32.33;40.90
37776;BME280;23614;33.774;130.514;2022-07-10T06:26:54;100078.56;;;32.08;40.93
37776;BME280;23614;33.774;130.514;2022-07-10T06:29:19;100086.32;;;32.65;40.47
37776;BME280;23614;33.774;130.514;2022-07-10T06:31:45;100089.55;;;32.76;39.59
37776;BME280;23614;33.774;130.514;2022-07-10T06:34:11;100088.64;;;32.45;40.37
37776;BME280;23614;33.774;130.514;2022-07-10T06:36:37;100090.72;;;32.85;40.67
37776;BME280;23614;33.774;130.514;2022-07-10T06:39:09;100089.76;;;32.45;40.81
37776;BME280;23614;33.774;130.514;2022-07-10T06:41:29;100087.55;;;32.35;40.91
37776;BME280;23614;33.774;130.514;2022-07-10T06:43:55;100083.09;;;31.70;42.39
37776;BME280;23614;33.774;130.514;2022-07-10T06:46:21;100078.22;;;32.66;41.09
37776;BME280;23614;33.774;130.514;2022-07-10T06:48:47;100076.41;;;33.14;40.22
37776;BME280;23614;33.774;130.514;2022-07-10T06:51:13;100079.75;;;33.23;40.02
37776;BME280;23614;33.774;130.514;2022-07-10T06:53:39;100085.73;;;32.48;40.60
37776;BME280;23614;33.774;130.514;2022-07-10T06:56:06;100083.84;;;32.89;39.90
37776;BME280;23614;33.774;130.514;2022-07-10T06:58:31;100078.13;;;32.84;40.17
37776;BME280;23614;33.774;130.514;2022-07-10T07:00:58;100075.89;;;32.93;40.72
37776;BME280;23614;33.774;130.514;2022-07-10T07:03:23;100075.38;;;33.00;40.18
37776;BME280;23614;33.774;130.514;2022-07-10T07:05:49;100074.53;;;33.42;39.44
37776;BME280;23614;33.774;130.514;2022-07-10T07:08:15;100076.97;;;33.10;39.80
37776;BME280;23614;33.774;130.514;2022-07-10T07:10:41;100077.01;;;32.22;41.19
37776;BME280;23614;33.774;130.514;2022-07-10T07:13:07;100077.36;;;32.33;41.44
37776;BME280;23614;33.774;130.514;2022-07-10T07:15:33;100071.24;;;32.95;40.52
37776;BME280;23614;33.774;130.514;2022-07-10T07:17:59;100064.83;;;31.24;42.79
37776;BME280;23614;33.774;130.514;2022-07-10T07:20:29;100059.19;;;31.93;42.01
37776;BME280;23614;33.774;130.514;2022-07-10T07:23:10;100058.08;;;32.43;40.89
37776;BME280;23614;33.774;130.514;2022-07-10T07:25:23;100060.08;;;32.31;40.15
37776;BME280;23614;33.774;130.514;2022-07-10T07:27:44;100058.38;;;32.36;40.73
37776;BME280;23614;33.774;130.514;2022-07-10T07:30:11;100056.56;;;32.44;40.08
37776;BME280;23614;33.774;130.514;2022-07-10T07:32:37;100056.40;;;32.26;40.56
37776;BME280;23614;33.774;130.514;2022-07-10T07:35:07;100055.81;;;31.40;41.09
37776;BME280;23614;33.774;130.514;2022-07-10T07:37:54;100052.32;;;32.58;38.90
37776;BME280;23614;33.774;130.514;2022-07-10T07:39:53;100053.66;;;32.66;39.62
37776;BME280;23614;33.774;130.514;2022-07-10T07:42:25;100049.26;;;32.51;39.68
37776;BME280;23614;33.774;130.514;2022-07-10T07:44:47;100051.37;;;32.60;40.09
37776;BME280;23614;33.774;130.514;2022-07-10T07:47:11;100049.15;;;32.92;39.55
37776;BME280;23614;33.774;130.514;2022-07-10T07:49:37;100047.34;;;32.15;40.18
37776;BME280;23614;33.774;130.514;2022-07-10T07:52:03;100042.70;;;32.20;40.21
37776;BME280;23614;33.774;130.514;2022-07-10T07:54:29;100043.08;;;32.75;39.48
37776;BME280;23614;33.774;130.514;2022-07-10T07:56:55;100034.59;;;33.03;38.59
37776;BME280;23614;33.774;130.514;2022-07-10T07:59:21;100033.93;;;33.03;38.35
37776;BME280;23614;33.774;130.514;2022-07-10T08:01:48;100032.32;;;32.99;38.26
37776;BME280;23614;33.774;130.514;2022-07-10T08:04:13;100031.18;;;32.34;38.91
37776;BME280;23614;33.774;130.514;2022-07-10T08:06:39;100034.04;;;32.48;39.07
37776;BME280;23614;33.774;130.514;2022-07-10T08:09:05;100027.32;;;32.61;39.30
37776;BME280;23614;33.774;130.514;2022-07-10T08:11:31;100020.20;;;32.71;39.07
37776;BME280;23614;33.774;130.514;2022-07-10T08:13:57;100013.64;;;32.80;38.79
37776;BME280;23614;33.774;130.514;2022-07-10T08:16:26;100007.70;;;33.00;38.92
37776;BME280;23614;33.774;130.514;2022-07-10T08:18:54;100007.44;;;32.65;39.22
37776;BME280;23614;33.774;130.514;2022-07-10T08:21:15;100004.56;;;32.94;37.99
37776;BME280;23614;33.774;130.514;2022-07-10T08:23:45;100002.35;;;32.48;37.98
37776;BME280;23614;33.774;130.514;2022-07-10T08:26:07;100000.70;;;32.54;37.96
37776;BME280;23614;33.774;130.514;2022-07-10T08:28:34;100003.48;;;32.55;37.52
37776;BME280;23614;33.774;130.514;2022-07-10T08:30:59;100002.04;;;32.32;37.93
37776;BME280;23614;33.774;130.514;2022-07-10T08:33:25;99991.57;;;32.84;37.88
37776;BME280;23614;33.774;130.514;2022-07-10T08:36:00;99985.79;;;32.52;38.91
37776;BME280;23614;33.774;130.514;2022-07-10T08:38:17;99983.89;;;32.95;38.49
37776;BME280;23614;33.774;130.514;2022-07-10T08:40:44;99983.06;;;32.75;38.60
37776;BME280;23614;33.774;130.514;2022-07-10T08:43:09;99979.77;;;32.88;38.51
37776;BME280;23614;33.774;130.514;2022-07-10T08:45:35;99977.57;;;32.92;37.97
37776;BME280;23614;33.774;130.514;2022-07-10T08:48:03;99974.61;;;33.11;37.75
37776;BME280;23614;33.774;130.514;2022-07-10T08:50:27;99969.75;;;33.33;37.57
37776;BME280;23614;33.774;130.514;2022-07-10T08:52:59;99970.86;;;33.38;37.09
37776;BME280;23614;33.774;130.514;2022-07-10T08:55:19;99970.13;;;33.41;37.16
37776;BME280;23614;33.774;130.514;2022-07-10T08:57:46;99969.53;;;33.87;36.18
37776;BME280;23614;33.774;130.514;2022-07-10T09:00:11;99970.69;;;33.93;36.57
37776;BME280;23614;33.774;130.514;2022-07-10T09:02:37;99972.14;;;33.67;37.04
37776;BME280;23614;33.774;130.514;2022-07-10T09:05:03;99974.29;;;33.68;37.46
37776;BME280;23614;33.774;130.514;2022-07-10T09:07:35;99971.20;;;33.78;36.64
37776;BME280;23614;33.774;130.514;2022-07-10T09:09:56;99972.32;;;34.02;36.12
37776;BME280;23614;33.774;130.514;2022-07-10T09:12:21;99976.24;;;34.04;35.56
37776;BME280;23614;33.774;130.514;2022-07-10T09:14:48;99978.84;;;34.30;35.41
37776;BME280;23614;33.774;130.514;2022-07-10T09:17:13;99981.51;;;33.87;35.37
37776;BME280;23614;33.774;130.514;2022-07-10T09:19:42;99983.19;;;34.29;34.64
37776;BME280;23614;33.774;130.514;2022-07-10T09:22:07;99983.45;;;33.89;34.99
37776;BME280;23614;33.774;130.514;2022-07-10T09:24:35;99979.08;;;33.76;35.53
37776;BME280;23614;33.774;130.514;2022-07-10T09:27:01;99973.76;;;33.23;36.50
37776;BME280;23614;33.774;130.514;2022-07-10T09:29:25;99971.61;;;33.60;36.39
37776;BME280;23614;33.774;130.514;2022-07-10T09:31:51;99968.66;;;33.67;36.00
37776;BME280;23614;33.774;130.514;2022-07-10T09:34:15;99963.56;;;33.84;35.41
37776;BME280;23614;33.774;130.514;2022-07-10T09:36:41;99955.35;;;34.04;35.67
37776;BME280;23614;33.774;130.514;2022-07-10T09:39:07;99949.19;;;33.80;36.03
37776;BME280;23614;33.774;130.514;2022-07-10T09:41:33;99946.33;;;33.56;36.20
37776;BME280;23614;33.774;130.514;2022-07-10T09:44:01;99945.59;;;33.27;36.71
37776;BME280;23614;33.774;130.514;2022-07-10T09:46:28;99937.95;;;33.37;36.91
37776;BME280;23614;33.774;130.514;2022-07-10T09:49:02;99942.36;;;33.63;36.34
37776;BME280;23614;33.774;130.514;2022-07-10T09:51:17;99951.65;;;33.83;36.10
37776;BME280;23614;33.774;130.514;2022-07-10T09:53:44;99956.42;;;33.46;36.51
37776;BME280;23614;33.774;130.514;2022-07-10T09:56:10;99957.60;;;33.62;36.25
37776;BME280;23614;33.774;130.514;2022-07-10T09:58:35;99955.77;;;33.72;36.49
37776;BME280;23614;33.774;130.514;2022-07-10T10:01:01;99958.87;;;33.53;36.74
37776;BME280;23614;33.774;130.514;2022-07-10T10:03:27;99958.42;;;33.74;36.47
37776;BME280;23614;33.774;130.514;2022-07-10T10:05:55;99951.40;;;33.61;36.59
37776;BME280;23614;33.774;130.514;2022-07-10T10:08:25;99942.39;;;33.65;36.83
37776;BME280;23614;33.774;130.514;2022-07-10T10:10:49;99940.26;;;33.59;36.95
37776;BME280;23614;33.774;130.514;2022-07-10T10:13:11;99941.22;;;33.30;37.43
37776;BME280;23614;33.774;130.514;2022-07-10T10:15:38;99932.52;;;33.67;36.82
37776;BME280;23614;33.774;130.514;2022-07-10T10:18:03;99931.24;;;33.33;37.40
37776;BME280;23614;33.774;130.514;2022-07-10T10:20:30;99930.23;;;33.01;37.87
37776;BME280;23614;33.774;130.514;2022-07-10T10:22:56;99931.48;;;33.08;37.62
37776;BME280;23614;33.774;130.514;2022-07-10T10:25:21;99936.57;;;33.20;37.63
37776;BME280;23614;33.774;130.514;2022-07-10T10:27:47;99939.42;;;33.20;37.70
37776;BME280;23614;33.774;130.514;2022-07-10T10:30:14;99943.39;;;33.30;37.36
37776;BME280;23614;33.774;130.514;2022-07-10T10:32:41;99948.29;;;33.20;37.91
37776;BME280;23614;33.774;130.514;2022-07-10T10:35:06;99954.77;;;33.01;38.10
37776;BME280;23614;33.774;130.514;2022-07-10T10:37:36;99956.08;;;33.28;37.84
37776;BME280;23614;33.774;130.514;2022-07-10T10:39:57;99951.31;;;32.76;38.15
37776;BME280;23614;33.774;130.514;2022-07-10T10:42:40;99948.56;;;33.13;37.96
37776;BME280;23614;33.774;130.514;2022-07-10T10:44:49;99949.71;;;32.82;38.45
37776;BME280;23614;33.774;130.514;2022-07-10T10:52:12;99928.06;;;32.86;38.24
37776;BME280;23614;33.774;130.514;2022-07-10T10:54:59;99925.36;;;32.87;38.46
37776;BME280;23614;33.774;130.514;2022-07-10T10:57:14;99928.17;;;32.77;38.46
37776;BME280;23614;33.774;130.514;2022-07-10T10:59:46;99930.99;;;32.79;38.95
37776;BME280;23614;33.774;130.514;2022-07-10T11:02:21;99929.36;;;32.48;39.19
37776;BME280;23614;33.774;130.514;2022-07-10T11:04:17;99928.48;;;32.15;39.71
37776;BME280;23614;33.774;130.514;2022-07-10T11:06:42;99930.77;;;32.43;39.68
37776;BME280;23614;33.774;130.514;2022-07-10T11:09:25;99936.67;;;32.43;39.91
37776;BME280;23614;33.774;130.514;2022-07-10T11:11:41;99942.11;;;32.37;40.19
37776;BME280;23614;33.774;130.514;2022-07-10T11:14:00;99950.71;;;31.86;40.90
37776;BME280;23614;33.774;130.514;2022-07-10T11:16:26;99958.79;;;31.79;40.98
37776;BME280;23614;33.774;130.514;2022-07-10T11:19:02;99971.32;;;31.99;40.68
37776;BME280;23614;33.774;130.514;2022-07-10T11:21:27;99975.56;;;31.99;40.78
37776;BME280;23614;33.774;130.514;2022-07-10T11:23:58;99984.99;;;31.61;41.20
37776;BME280;23614;33.774;130.514;2022-07-10T11:26:24;99992.63;;;31.83;41.28
37776;BME280;23614;33.774;130.514;2022-07-10T11:28:51;99997.06;;;31.32;42.25
37776;BME280;23614;33.774;130.514;2022-07-10T11:31:16;100003.11;;;31.02;42.59
37776;BME280;23614;33.774;130.514;2022-07-10T11:33:41;100012.17;;;31.10;42.64
37776;BME280;23614;33.774;130.514;2022-07-10T11:36:11;100014.05;;;31.36;42.42
37776;BME280;23614;33.774;130.514;2022-07-10T11:38:29;100018.79;;;30.67;43.63
37776;BME280;23614;33.774;130.514;2022-07-10T11:40:55;100019.85;;;31.02;43.27
37776;BME280;23614;33.774;130.514;2022-07-10T11:43:21;100025.12;;;30.69;44.04
37776;BME280;23614;33.774;130.514;2022-07-10T11:45:47;100032.33;;;30.50;44.46
37776;BME280;23614;33.774;130.514;2022-07-10T11:48:20;100038.94;;;30.61;44.16
37776;BME280;23614;33.774;130.514;2022-07-10T11:50:39;100044.87;;;30.29;44.69
37776;BME280;23614;33.774;130.514;2022-07-10T11:53:06;100041.49;;;30.56;44.23
37776;BME280;23614;33.774;130.514;2022-07-10T11:55:31;100040.73;;;30.40;44.45
37776;BME280;23614;33.774;130.514;2022-07-10T11:57:57;100038.10;;;30.47;44.37
37776;BME280;23614;33.774;130.514;2022-07-10T12:00:29;100038.99;;;30.60;44.29
37776;BME280;23614;33.774;130.514;2022-07-10T12:02:49;100044.28;;;30.53;44.54
37776;BME280;23614;33.774;130.514;2022-07-10T12:05:32;100050.44;;;30.43;44.63
37776;BME280;23614;33.774;130.514;2022-07-10T12:07:42;100056.66;;;30.70;44.05
37776;BME280;23614;33.774;130.514;2022-07-10T12:10:08;100059.92;;;30.60;43.83
37776;BME280;23614;33.774;130.514;2022-07-10T12:12:33;100059.48;;;30.50;44.06
37776;BME280;23614;33.774;130.514;2022-07-10T12:14:59;100055.44;;;30.54;44.13
37776;BME280;23614;33.774;130.514;2022-07-10T12:17:25;100056.07;;;30.64;44.03
37776;BME280;23614;33.774;130.514;2022-07-10T12:19:52;100057.67;;;30.67;43.96
37776;BME280;23614;33.774;130.514;2022-07-10T12:22:18;100050.11;;;30.89;43.72
37776;BME280;23614;33.774;130.514;2022-07-10T12:24:43;100040.32;;;30.76;44.01
37776;BME280;23614;33.774;130.514;2022-07-10T12:27:09;100037.10;;;30.82;43.91
37776;BME280;23614;33.774;130.514;2022-07-10T12:29:35;100033.71;;;30.93;43.82
37776;BME280;23614;33.774;130.514;2022-07-10T12:32:03;100042.36;;;31.20;43.12
37776;BME280;23614;33.774;130.514;2022-07-10T12:34:35;100046.93;;;30.99;43.75
37776;BME280;23614;33.774;130.514;2022-07-10T12:36:54;100050.47;;;30.88;43.53
37776;BME280;23614;33.774;130.514;2022-07-10T12:39:19;100052.09;;;30.98;43.48